sensor_id;sensor_type;location;lat;lon;timestamp;P1;durP1;ratioP1;P2;durP2;ratioP2
2105;SDS011;1059;52.548;13.408;2023-04-01T00:00:52;6.23;;;4.57;;
2105;SDS011;1059;52.548;13.408;2023-04-01T00:03:21;7.97;;;4.23;;
2105;SDS011;1059;52.548;13.408;2023-04-01T00:05:48;5.23;;;3.83;;
2105;SDS011;1059;52.548;13.408;2023-04-01T00:08:16;4.33;;;3.90;;
2105;SDS011;1059;52.548;13.408;2023-04-01T00:10:43;5.73;;;3.50;;
2105;SDS011;1059;52.548;13.408;2023-04-01T00:13:10;4.07;;;3.50;;
2105;SDS011;1059;52.548;13.408;2023-04-01T00:15:37;4.70;;;3.77;;
2105;SDS011;1059;52.548;13.408;2023-04-01T00:18:06;4.23;;;3.20;;
2105;SDS011;1059;52.548;13.408;2023-04-01T00:20:33;5.70;;;3.50;;
2105;SDS011;1059;52.548;13.408;2023-04-01T00:23:00;11.60;;;3.80;;
2105;SDS011;1059;52.548;13.408;2023-04-01T00:25:27;5.97;;;3.60;;
2105;SDS011;1059;52.548;13.408;2023-04-01T00:27:54;3.27;;;2.97;;
2105;SDS011;1059;52.548;13.408;2023-04-01T00:30:21;4.27;;;3.10;;
2105;SDS011;1059;52.548;13.408;2023-04-01T00:32:50;7.93;;;4.07;;
2105;SDS011;1059;52.548;13.408;2023-04-01T00:35:19;5.23;;;3.47;;
2105;SDS011;1059;52.548;13.408;2023-04-01T00:37:47;6.40;;;3.60;;
2105;SDS011;1059;52.548;13.408;2023-04-01T00:40:21;5.07;;;3.73;;
2105;SDS011;1059;52.548;13.408;2023-04-01T00:42:50;6.10;;;3.60;;
2105;SDS011;1059;52.548;13.408;2023-04-01T00:45:23;6.97;;;3.77;;
2105;SDS011;1059;52.548;13.408;2023-04-01T00:47:56;6.33;;;3.80;;
2105;SDS011;1059;52.548;13.408;2023-04-01T00:50:29;6.70;;;3.77;;
2105;SDS011;1059;52.548;13.408;2023-04-01T00:52:57;5.70;;;3.80;;
2105;SDS011;1059;52.548;13.408;2023-04-01T00:55:26;4.37;;;3.63;;
2105;SDS011;1059;52.548;13.408;2023-04-01T00:57:55;4.53;;;3.30;;
2105;SDS011;1059;52.548;13.408;2023-04-01T01:00:24;5.60;;;3.40;;
2105;SDS011;1059;52.548;13.408;2023-04-01T01:02:51;5.60;;;3.30;;
2105;SDS011;1059;52.548;13.408;2023-04-01T01:05:20;4.90;;;3.50;;
2105;SDS011;1059;52.548;13.408;2023-04-01T01:07:55;5.00;;;3.80;;
2105;SDS011;1059;52.548;13.408;2023-04-01T01:10:30;8.40;;;4.03;;
2105;SDS011;1059;52.548;13.408;2023-04-01T01:13:00;6.03;;;3.80;;
2105;SDS011;1059;52.548;13.408;2023-04-01T01:15:35;5.10;;;3.43;;
2105;SDS011;1059;52.548;13.408;2023-04-01T01:18:06;5.00;;;3.57;;
2105;SDS011;1059;52.548;13.408;2023-04-01T01:20:53;4.63;;;3.70;;
2105;SDS011;1059;52.548;13.408;2023-04-01T01:23:54;8.13;;;4.33;;
2105;SDS011;1059;52.548;13.408;2023-04-01T01:26:42;4.87;;;3.67;;
2105;SDS011;1059;52.548;13.408;2023-04-01T01:29:33;6.80;;;3.60;;
2105;SDS011;1059;52.548;13.408;2023-04-01T01:32:10;6.40;;;4.10;;
2105;SDS011;1059;52.548;13.408;2023-04-01T01:34:45;5.83;;;5.00;;
2105;SDS011;1059;52.548;13.408;2023-04-01T01:37:20;7.77;;;4.10;;
2105;SDS011;1059;52.548;13.408;2023-04-01T01:39:52;6.33;;;3.83;;
2105;SDS011;1059;52.548;13.408;2023-04-01T01:42:21;6.73;;;3.57;;
2105;SDS011;1059;52.548;13.408;2023-04-01T01:44:52;7.43;;;4.80;;
2105;SDS011;1059;52.548;13.408;2023-04-01T01:47:21;11.67;;;4.33;;
2105;SDS011;1059;52.548;13.408;2023-04-01T01:49:49;5.70;;;4.10;;
2105;SDS011;1059;52.548;13.408;2023-04-01T01:52:18;6.90;;;4.23;;
2105;SDS011;1059;52.548;13.408;2023-04-01T01:54:49;5.50;;;4.10;;
2105;SDS011;1059;52.548;13.408;2023-04-01T01:57:17;5.07;;;4.00;;
2105;SDS011;1059;52.548;13.408;2023-04-01T01:59:48;6.27;;;3.90;;
2105;SDS011;1059;52.548;13.408;2023-04-01T02:02:15;8.40;;;4.17;;
2105;SDS011;1059;52.548;13.408;2023-04-01T02:04:43;10.90;;;4.60;;
2105;SDS011;1059;52.548;13.408;2023-04-01T02:07:12;6.10;;;3.63;;
2105;SDS011;1059;52.548;13.408;2023-04-01T02:09:43;6.07;;;3.30;;
2105;SDS011;1059;52.548;13.408;2023-04-01T02:12:12;7.10;;;4.07;;
2105;SDS011;1059;52.548;13.408;2023-04-01T02:14:42;7.30;;;3.80;;
2105;SDS011;1059;52.548;13.408;2023-04-01T02:17:13;3.30;;;2.90;;
2105;SDS011;1059;52.548;13.408;2023-04-01T02:19:43;5.23;;;2.87;;
2105;SDS011;1059;52.548;13.408;2023-04-01T02:22:14;5.37;;;4.40;;
2105;SDS011;1059;52.548;13.408;2023-04-01T02:24:45;5.30;;;3.00;;
2105;SDS011;1059;52.548;13.408;2023-04-01T02:27:13;6.60;;;2.87;;
2105;SDS011;1059;52.548;13.408;2023-04-01T02:29:40;4.13;;;3.10;;
2105;SDS011;1059;52.548;13.408;2023-04-01T02:32:07;6.67;;;3.10;;
2105;SDS011;1059;52.548;13.408;2023-04-01T02:34:36;5.00;;;3.00;;
2105;SDS011;1059;52.548;13.408;2023-04-01T02:37:03;9.43;;;3.33;;
2105;SDS011;1059;52.548;13.408;2023-04-01T02:39:30;6.43;;;3.53;;
2105;SDS011;1059;52.548;13.408;2023-04-01T02:41:57;5.47;;;3.17;;
2105;SDS011;1059;52.548;13.408;2023-04-01T02:44:25;4.97;;;3.70;;
2105;SDS011;1059;52.548;13.408;2023-04-01T02:46:52;5.70;;;4.07;;
2105;SDS011;1059;52.548;13.408;2023-04-01T02:49:19;4.40;;;3.13;;
2105;SDS011;1059;52.548;13.408;2023-04-01T02:51:46;7.70;;;4.60;;
2105;SDS011;1059;52.548;13.408;2023-04-01T02:54:13;5.33;;;3.90;;
2105;SDS011;1059;52.548;13.408;2023-04-01T02:56:40;6.97;;;3.73;;
2105;SDS011;1059;52.548;13.408;2023-04-01T02:59:06;6.23;;;3.03;;
2105;SDS011;1059;52.548;13.408;2023-04-01T03:01:35;4.90;;;3.13;;
2105;SDS011;1059;52.548;13.408;2023-04-01T03:04:02;7.13;;;3.40;;
2105;SDS011;1059;52.548;13.408;2023-04-01T03:06:29;6.43;;;3.37;;
2105;SDS011;1059;52.548;13.408;2023-04-01T03:08:56;4.23;;;3.23;;
2105;SDS011;1059;52.548;13.408;2023-04-01T03:11:23;3.97;;;3.30;;
2105;SDS011;1059;52.548;13.408;2023-04-01T03:13:51;6.27;;;3.90;;
2105;SDS011;1059;52.548;13.408;2023-04-01T03:16:17;5.70;;;3.83;;
2105;SDS011;1059;52.548;13.408;2023-04-01T03:18:46;6.17;;;3.80;;
2105;SDS011;1059;52.548;13.408;2023-04-01T03:21:15;4.10;;;3.40;;
2105;SDS011;1059;52.548;13.408;2023-04-01T03:23:42;6.60;;;3.90;;
2105;SDS011;1059;52.548;13.408;2023-04-01T03:26:09;4.60;;;3.37;;
2105;SDS011;1059;52.548;13.408;2023-04-01T03:28:36;6.90;;;4.13;;
2105;SDS011;1059;52.548;13.408;2023-04-01T03:31:03;9.87;;;4.60;;
2105;SDS011;1059;52.548;13.408;2023-04-01T03:33:31;6.87;;;4.20;;
2105;SDS011;1059;52.548;13.408;2023-04-01T03:35:59;10.90;;;5.23;;
2105;SDS011;1059;52.548;13.408;2023-04-01T03:38:26;8.80;;;4.10;;
2105;SDS011;1059;52.548;13.408;2023-04-01T03:40:53;6.90;;;4.83;;
2105;SDS011;1059;52.548;13.408;2023-04-01T03:43:20;7.73;;;4.40;;
2105;SDS011;1059;52.548;13.408;2023-04-01T03:45:48;8.63;;;4.77;;
2105;SDS011;1059;52.548;13.408;2023-04-01T03:48:15;11.10;;;5.17;;
2105;SDS011;1059;52.548;13.408;2023-04-01T03:50:43;9.90;;;5.03;;
2105;SDS011;1059;52.548;13.408;2023-04-01T03:53:11;11.57;;;4.90;;
2105;SDS011;1059;52.548;13.408;2023-04-01T03:55:38;6.63;;;4.40;;
2105;SDS011;1059;52.548;13.408;2023-04-01T03:58:06;10.50;;;5.07;;
2105;SDS011;1059;52.548;13.408;2023-04-01T04:00:33;8.90;;;4.83;;
2105;SDS011;1059;52.548;13.408;2023-04-01T04:03:00;7.33;;;4.77;;
2105;SDS011;1059;52.548;13.408;2023-04-01T04:05:27;14.43;;;4.30;;
2105;SDS011;1059;52.548;13.408;2023-04-01T04:07:54;7.47;;;4.10;;
2105;SDS011;1059;52.548;13.408;2023-04-01T04:10:23;8.80;;;4.00;;
2105;SDS011;1059;52.548;13.408;2023-04-01T04:12:50;8.67;;;4.90;;
2105;SDS011;1059;52.548;13.408;2023-04-01T04:15:17;6.00;;;4.47;;
2105;SDS011;1059;52.548;13.408;2023-04-01T04:17:44;5.07;;;3.90;;
2105;SDS011;1059;52.548;13.408;2023-04-01T04:20:11;7.00;;;4.07;;
2105;SDS011;1059;52.548;13.408;2023-04-01T04:22:38;9.23;;;4.50;;
2105;SDS011;1059;52.548;13.408;2023-04-01T04:25:05;6.27;;;4.27;;
2105;SDS011;1059;52.548;13.408;2023-04-01T04:27:34;5.77;;;3.97;;
2105;SDS011;1059;52.548;13.408;2023-04-01T04:30:02;7.10;;;4.27;;
2105;SDS011;1059;52.548;13.408;2023-04-01T04:32:29;7.13;;;4.80;;
2105;SDS011;1059;52.548;13.408;2023-04-01T04:34:56;11.63;;;6.17;;
2105;SDS011;1059;52.548;13.408;2023-04-01T04:37:23;10.03;;;5.20;;
2105;SDS011;1059;52.548;13.408;2023-04-01T04:39:51;8.87;;;6.10;;
2105;SDS011;1059;52.548;13.408;2023-04-01T04:42:18;8.63;;;5.47;;
2105;SDS011;1059;52.548;13.408;2023-04-01T04:44:46;10.63;;;6.77;;
2105;SDS011;1059;52.548;13.408;2023-04-01T04:47:13;13.50;;;6.50;;
2105;SDS011;1059;52.548;13.408;2023-04-01T04:49:40;8.00;;;5.87;;
2105;SDS011;1059;52.548;13.408;2023-04-01T04:52:06;15.50;;;7.10;;
2105;SDS011;1059;52.548;13.408;2023-04-01T04:54:33;9.90;;;5.80;;
2105;SDS011;1059;52.548;13.408;2023-04-01T04:57:00;11.63;;;6.70;;
2105;SDS011;1059;52.548;13.408;2023-04-01T04:59:27;12.30;;;6.57;;
2105;SDS011;1059;52.548;13.408;2023-04-01T05:01:55;10.50;;;6.63;;
2105;SDS011;1059;52.548;13.408;2023-04-01T05:04:22;9.60;;;7.17;;
2105;SDS011;1059;52.548;13.408;2023-04-01T05:06:49;11.33;;;7.33;;
2105;SDS011;1059;52.548;13.408;2023-04-01T05:09:16;14.93;;;7.50;;
2105;SDS011;1059;52.548;13.408;2023-04-01T05:11:43;12.10;;;7.83;;
2105;SDS011;1059;52.548;13.408;2023-04-01T05:14:13;10.23;;;7.37;;
2105;SDS011;1059;52.548;13.408;2023-04-01T05:16:41;11.93;;;7.60;;
2105;SDS011;1059;52.548;13.408;2023-04-01T05:19:09;13.47;;;8.00;;
2105;SDS011;1059;52.548;13.408;2023-04-01T05:21:36;13.07;;;7.17;;
2105;SDS011;1059;52.548;13.408;2023-04-01T05:24:03;14.23;;;7.37;;
2105;SDS011;1059;52.548;13.408;2023-04-01T05:26:33;12.60;;;7.00;;
2105;SDS011;1059;52.548;13.408;2023-04-01T05:29:00;8.80;;;7.17;;
2105;SDS011;1059;52.548;13.408;2023-04-01T05:31:26;9.23;;;7.73;;
2105;SDS011;1059;52.548;13.408;2023-04-01T05:33:53;12.63;;;7.20;;
2105;SDS011;1059;52.548;13.408;2023-04-01T05:36:22;12.27;;;7.10;;
2105;SDS011;1059;52.548;13.408;2023-04-01T05:38:49;12.00;;;7.50;;
2105;SDS011;1059;52.548;13.408;2023-04-01T05:41:15;11.03;;;7.30;;
2105;SDS011;1059;52.548;13.408;2023-04-01T05:43:42;16.17;;;12.00;;
2105;SDS011;1059;52.548;13.408;2023-04-01T05:46:09;13.03;;;7.20;;
2105;SDS011;1059;52.548;13.408;2023-04-01T05:48:36;10.37;;;6.90;;
2105;SDS011;1059;52.548;13.408;2023-04-01T05:51:03;18.07;;;7.93;;
2105;SDS011;1059;52.548;13.408;2023-04-01T05:53:32;24.87;;;17.93;;
2105;SDS011;1059;52.548;13.408;2023-04-01T05:56:01;30.50;;;17.90;;
2105;SDS011;1059;52.548;13.408;2023-04-01T05:58:28;15.33;;;10.90;;
2105;SDS011;1059;52.548;13.408;2023-04-01T06:00:59;19.07;;;13.00;;
2105;SDS011;1059;52.548;13.408;2023-04-01T06:03:27;20.13;;;13.97;;
2105;SDS011;1059;52.548;13.408;2023-04-01T06:05:54;14.70;;;7.57;;
2105;SDS011;1059;52.548;13.408;2023-04-01T06:08:21;12.10;;;7.40;;
2105;SDS011;1059;52.548;13.408;2023-04-01T06:10:53;13.03;;;7.57;;
2105;SDS011;1059;52.548;13.408;2023-04-01T06:13:32;12.70;;;7.40;;
2105;SDS011;1059;52.548;13.408;2023-04-01T06:16:11;17.43;;;8.13;;
2105;SDS011;1059;52.548;13.408;2023-04-01T06:19:02;16.30;;;8.50;;
2105;SDS011;1059;52.548;13.408;2023-04-01T06:21:46;13.87;;;7.90;;
2105;SDS011;1059;52.548;13.408;2023-04-01T06:24:31;17.03;;;8.93;;
2105;SDS011;1059;52.548;13.408;2023-04-01T06:27:12;13.73;;;7.77;;
2105;SDS011;1059;52.548;13.408;2023-04-01T06:29:50;9.20;;;7.27;;
2105;SDS011;1059;52.548;13.408;2023-04-01T06:32:28;11.30;;;7.30;;
2105;SDS011;1059;52.548;13.408;2023-04-01T06:35:20;12.30;;;7.77;;
2105;SDS011;1059;52.548;13.408;2023-04-01T06:38:06;12.80;;;7.63;;
2105;SDS011;1059;52.548;13.408;2023-04-01T06:40:53;14.60;;;8.20;;
2105;SDS011;1059;52.548;13.408;2023-04-01T06:43:42;10.10;;;7.20;;
2105;SDS011;1059;52.548;13.408;2023-04-01T06:46:19;11.70;;;7.90;;
2105;SDS011;1059;52.548;13.408;2023-04-01T06:49:01;14.53;;;8.60;;
2105;SDS011;1059;52.548;13.408;2023-04-01T06:51:34;15.07;;;7.97;;
2105;SDS011;1059;52.548;13.408;2023-04-01T06:54:10;12.23;;;8.17;;
2105;SDS011;1059;52.548;13.408;2023-04-01T06:56:42;13.00;;;7.87;;
2105;SDS011;1059;52.548;13.408;2023-04-01T06:59:15;14.30;;;9.17;;
2105;SDS011;1059;52.548;13.408;2023-04-01T07:01:45;14.73;;;9.47;;
2105;SDS011;1059;52.548;13.408;2023-04-01T07:04:16;14.60;;;8.87;;
2105;SDS011;1059;52.548;13.408;2023-04-01T07:06:48;20.70;;;8.50;;
2105;SDS011;1059;52.548;13.408;2023-04-01T07:09:19;18.00;;;13.37;;
2105;SDS011;1059;52.548;13.408;2023-04-01T07:11:50;17.00;;;9.13;;
2105;SDS011;1059;52.548;13.408;2023-04-01T07:14:25;14.93;;;10.80;;
2105;SDS011;1059;52.548;13.408;2023-04-01T07:16:59;14.23;;;8.97;;
2105;SDS011;1059;52.548;13.408;2023-04-01T07:19:31;16.30;;;10.13;;
2105;SDS011;1059;52.548;13.408;2023-04-01T07:22:03;17.00;;;10.40;;
2105;SDS011;1059;52.548;13.408;2023-04-01T07:24:32;17.20;;;11.70;;
2105;SDS011;1059;52.548;13.408;2023-04-01T07:27:02;14.97;;;10.50;;
2105;SDS011;1059;52.548;13.408;2023-04-01T07:29:32;16.10;;;10.10;;
2105;SDS011;1059;52.548;13.408;2023-04-01T07:32:17;17.03;;;11.40;;
2105;SDS011;1059;52.548;13.408;2023-04-01T07:35:00;15.00;;;10.30;;
2105;SDS011;1059;52.548;13.408;2023-04-01T07:37:36;13.27;;;9.73;;
2105;SDS011;1059;52.548;13.408;2023-04-01T07:40:17;13.30;;;10.67;;
2105;SDS011;1059;52.548;13.408;2023-04-01T07:42:55;26.80;;;17.57;;
2105;SDS011;1059;52.548;13.408;2023-04-01T07:45:34;14.73;;;9.30;;
2105;SDS011;1059;52.548;13.408;2023-04-01T07:48:10;13.93;;;9.50;;
2105;SDS011;1059;52.548;13.408;2023-04-01T07:50:46;10.77;;;8.77;;
2105;SDS011;1059;52.548;13.408;2023-04-01T07:53:22;12.27;;;8.40;;
2105;SDS011;1059;52.548;13.408;2023-04-01T07:55:58;17.67;;;10.27;;
2105;SDS011;1059;52.548;13.408;2023-04-01T07:58:32;14.77;;;10.80;;
2105;SDS011;1059;52.548;13.408;2023-04-01T08:01:09;22.53;;;12.10;;
2105;SDS011;1059;52.548;13.408;2023-04-01T08:03:48;12.87;;;8.20;;
2105;SDS011;1059;52.548;13.408;2023-04-01T08:06:27;9.97;;;7.10;;
2105;SDS011;1059;52.548;13.408;2023-04-01T08:09:00;8.87;;;7.13;;
2105;SDS011;1059;52.548;13.408;2023-04-01T08:11:42;6.80;;;4.40;;
2105;SDS011;1059;52.548;13.408;2023-04-01T08:14:19;5.70;;;4.33;;
2105;SDS011;1059;52.548;13.408;2023-04-01T08:16:56;7.50;;;4.40;;
2105;SDS011;1059;52.548;13.408;2023-04-01T08:19:30;15.97;;;9.47;;
2105;SDS011;1059;52.548;13.408;2023-04-01T08:22:04;20.90;;;13.73;;
2105;SDS011;1059;52.548;13.408;2023-04-01T08:24:36;18.67;;;11.40;;
2105;SDS011;1059;52.548;13.408;2023-04-01T08:27:09;21.53;;;16.87;;
2105;SDS011;1059;52.548;13.408;2023-04-01T08:29:44;13.70;;;9.17;;
2105;SDS011;1059;52.548;13.408;2023-04-01T08:32:16;14.67;;;10.03;;
2105;SDS011;1059;52.548;13.408;2023-04-01T08:34:50;14.37;;;10.17;;
2105;SDS011;1059;52.548;13.408;2023-04-01T08:37:25;16.27;;;9.87;;
2105;SDS011;1059;52.548;13.408;2023-04-01T08:39:58;19.60;;;12.00;;
2105;SDS011;1059;52.548;13.408;2023-04-01T08:42:46;16.83;;;11.77;;
2105;SDS011;1059;52.548;13.408;2023-04-01T08:45:35;20.33;;;13.83;;
2105;SDS011;1059;52.548;13.408;2023-04-01T08:48:27;18.00;;;12.80;;
2105;SDS011;1059;52.548;13.408;2023-04-01T08:54:35;18.50;;;12.43;;
2105;SDS011;1059;52.548;13.408;2023-04-01T08:57:33;19.13;;;12.77;;
2105;SDS011;1059;52.548;13.408;2023-04-01T09:00:14;22.90;;;14.70;;
2105;SDS011;1059;52.548;13.408;2023-04-01T09:06:03;20.47;;;12.77;;
2105;SDS011;1059;52.548;13.408;2023-04-01T09:08:52;18.13;;;12.57;;
2105;SDS011;1059;52.548;13.408;2023-04-01T09:11:47;19.03;;;14.23;;
2105;SDS011;1059;52.548;13.408;2023-04-01T09:14:51;15.90;;;12.30;;
2105;SDS011;1059;52.548;13.408;2023-04-01T09:20:41;16.73;;;13.00;;
2105;SDS011;1059;52.548;13.408;2023-04-01T09:23:43;31.57;;;25.90;;
2105;SDS011;1059;52.548;13.408;2023-04-01T09:26:31;16.73;;;13.20;;
2105;SDS011;1059;52.548;13.408;2023-04-01T09:29:17;19.10;;;13.63;;
2105;SDS011;1059;52.548;13.408;2023-04-01T09:32:04;18.63;;;14.83;;
2105;SDS011;1059;52.548;13.408;2023-04-01T09:34:52;19.40;;;14.33;;
2105;SDS011;1059;52.548;13.408;2023-04-01T09:37:25;18.23;;;14.47;;
2105;SDS011;1059;52.548;13.408;2023-04-01T09:40:13;16.20;;;12.83;;
2105;SDS011;1059;52.548;13.408;2023-04-01T09:42:44;16.17;;;12.80;;
2105;SDS011;1059;52.548;13.408;2023-04-01T09:45:34;14.70;;;12.50;;
2105;SDS011;1059;52.548;13.408;2023-04-01T09:48:12;15.20;;;12.03;;
2105;SDS011;1059;52.548;13.408;2023-04-01T09:50:57;14.90;;;11.40;;
2105;SDS011;1059;52.548;13.408;2023-04-01T09:53:45;14.57;;;11.00;;
2105;SDS011;1059;52.548;13.408;2023-04-01T09:56:38;11.00;;;9.57;;
2105;SDS011;1059;52.548;13.408;2023-04-01T09:59:47;13.37;;;9.90;;
2105;SDS011;1059;52.548;13.408;2023-04-01T10:02:37;12.33;;;9.80;;
2105;SDS011;1059;52.548;13.408;2023-04-01T10:12:02;11.93;;;10.30;;
2105;SDS011;1059;52.548;13.408;2023-04-01T10:18:03;12.13;;;10.07;;
2105;SDS011;1059;52.548;13.408;2023-04-01T10:20:54;13.27;;;10.73;;
2105;SDS011;1059;52.548;13.408;2023-04-01T10:23:36;14.20;;;10.90;;
2105;SDS011;1059;52.548;13.408;2023-04-01T10:35:15;17.20;;;13.50;;
2105;SDS011;1059;52.548;13.408;2023-04-01T10:38:10;17.07;;;14.50;;
2105;SDS011;1059;52.548;13.408;2023-04-01T10:44:35;16.03;;;13.37;;
2105;SDS011;1059;52.548;13.408;2023-04-01T10:50:43;20.20;;;12.97;;
2105;SDS011;1059;52.548;13.408;2023-04-01T10:53:32;15.50;;;13.80;;
2105;SDS011;1059;52.548;13.408;2023-04-01T10:56:11;16.10;;;13.40;;
2105;SDS011;1059;52.548;13.408;2023-04-01T10:59:15;15.63;;;12.03;;
2105;SDS011;1059;52.548;13.408;2023-04-01T11:02:17;16.20;;;13.40;;
2105;SDS011;1059;52.548;13.408;2023-04-01T11:11:53;17.43;;;13.87;;
2105;SDS011;1059;52.548;13.408;2023-04-01T11:24:20;15.40;;;12.50;;
2105;SDS011;1059;52.548;13.408;2023-04-01T11:27:05;16.33;;;12.47;;
2105;SDS011;1059;52.548;13.408;2023-04-01T11:29:51;16.00;;;13.37;;
2105;SDS011;1059;52.548;13.408;2023-04-01T11:32:32;15.30;;;12.60;;
2105;SDS011;1059;52.548;13.408;2023-04-01T11:38:17;17.90;;;13.93;;
2105;SDS011;1059;52.548;13.408;2023-04-01T11:41:12;17.90;;;14.90;;
2105;SDS011;1059;52.548;13.408;2023-04-01T11:43:54;17.37;;;14.97;;
2105;SDS011;1059;52.548;13.408;2023-04-01T11:46:39;16.63;;;14.20;;
2105;SDS011;1059;52.548;13.408;2023-04-01T11:49:33;17.10;;;13.90;;
2105;SDS011;1059;52.548;13.408;2023-04-01T11:52:14;18.57;;;14.27;;
2105;SDS011;1059;52.548;13.408;2023-04-01T11:55:01;18.33;;;14.80;;
2105;SDS011;1059;52.548;13.408;2023-04-01T11:57:56;16.90;;;14.37;;
2105;SDS011;1059;52.548;13.408;2023-04-01T12:00:52;15.87;;;13.73;;
2105;SDS011;1059;52.548;13.408;2023-04-01T12:03:42;17.97;;;15.07;;
2105;SDS011;1059;52.548;13.408;2023-04-01T12:06:30;16.43;;;14.10;;
2105;SDS011;1059;52.548;13.408;2023-04-01T12:09:04;18.97;;;14.93;;
2105;SDS011;1059;52.548;13.408;2023-04-01T12:11:44;18.63;;;13.90;;
2105;SDS011;1059;52.548;13.408;2023-04-01T12:14:19;14.53;;;13.03;;
2105;SDS011;1059;52.548;13.408;2023-04-01T12:16:57;14.33;;;12.83;;
2105;SDS011;1059;52.548;13.408;2023-04-01T12:19:32;14.57;;;13.07;;
2105;SDS011;1059;52.548;13.408;2023-04-01T12:22:32;14.63;;;12.50;;
2105;SDS011;1059;52.548;13.408;2023-04-01T12:25:14;17.37;;;13.57;;
2105;SDS011;1059;52.548;13.408;2023-04-01T12:27:52;15.00;;;13.50;;
2105;SDS011;1059;52.548;13.408;2023-04-01T12:30:32;15.93;;;14.00;;
2105;SDS011;1059;52.548;13.408;2023-04-01T12:33:28;14.53;;;13.03;;
2105;SDS011;1059;52.548;13.408;2023-04-01T12:36:18;17.00;;;14.60;;
2105;SDS011;1059;52.548;13.408;2023-04-01T12:39:04;16.43;;;13.60;;
2105;SDS011;1059;52.548;13.408;2023-04-01T12:41:46;16.43;;;13.60;;
2105;SDS011;1059;52.548;13.408;2023-04-01T12:44:26;16.50;;;14.53;;
2105;SDS011;1059;52.548;13.408;2023-04-01T12:47:09;18.13;;;14.03;;
2105;SDS011;1059;52.548;13.408;2023-04-01T12:50:02;16.83;;;15.03;;
2105;SDS011;1059;52.548;13.408;2023-04-01T12:52:46;17.03;;;14.77;;
2105;SDS011;1059;52.548;13.408;2023-04-01T12:55:28;16.00;;;14.00;;
2105;SDS011;1059;52.548;13.408;2023-04-01T12:58:20;18.23;;;14.67;;
2105;SDS011;1059;52.548;13.408;2023-04-01T13:01:18;19.30;;;15.33;;
2105;SDS011;1059;52.548;13.408;2023-04-01T13:04:00;17.60;;;14.70;;
2105;SDS011;1059;52.548;13.408;2023-04-01T13:06:58;20.47;;;15.73;;
2105;SDS011;1059;52.548;13.408;2023-04-01T13:09:53;16.90;;;13.50;;
2105;SDS011;1059;52.548;13.408;2023-04-01T13:12:36;17.97;;;15.20;;
2105;SDS011;1059;52.548;13.408;2023-04-01T13:15:26;17.93;;;15.00;;
2105;SDS011;1059;52.548;13.408;2023-04-01T13:18:02;16.63;;;14.87;;
2105;SDS011;1059;52.548;13.408;2023-04-01T13:20:41;17.90;;;14.67;;
2105;SDS011;1059;52.548;13.408;2023-04-01T13:23:14;17.53;;;14.03;;
2105;SDS011;1059;52.548;13.408;2023-04-01T13:25:53;16.53;;;14.03;;
2105;SDS011;1059;52.548;13.408;2023-04-01T13:28:30;17.30;;;14.93;;
2105;SDS011;1059;52.548;13.408;2023-04-01T13:31:05;14.90;;;13.00;;
2105;SDS011;1059;52.548;13.408;2023-04-01T13:33:42;15.30;;;12.80;;
2105;SDS011;1059;52.548;13.408;2023-04-01T13:36:18;32.20;;;22.70;;
2105;SDS011;1059;52.548;13.408;2023-04-01T13:41:51;13.53;;;12.00;;
2105;SDS011;1059;52.548;13.408;2023-04-01T13:44:28;13.30;;;10.70;;
2105;SDS011;1059;52.548;13.408;2023-04-01T13:47:22;13.20;;;11.27;;
2105;SDS011;1059;52.548;13.408;2023-04-01T13:50:03;15.67;;;10.80;;
2105;SDS011;1059;52.548;13.408;2023-04-01T13:52:58;15.90;;;10.20;;
2105;SDS011;1059;52.548;13.408;2023-04-01T13:55:49;10.77;;;9.67;;
2105;SDS011;1059;52.548;13.408;2023-04-01T13:58:38;12.40;;;9.40;;
2105;SDS011;1059;52.548;13.408;2023-04-01T14:01:17;10.00;;;9.00;;
2105;SDS011;1059;52.548;13.408;2023-04-01T14:07:00;11.73;;;9.83;;
2105;SDS011;1059;52.548;13.408;2023-04-01T14:09:39;9.57;;;8.60;;
2105;SDS011;1059;52.548;13.408;2023-04-01T14:12:26;12.73;;;10.50;;
2105;SDS011;1059;52.548;13.408;2023-04-01T14:15:01;10.77;;;9.67;;
2105;SDS011;1059;52.548;13.408;2023-04-01T14:17:49;10.17;;;9.10;;
2105;SDS011;1059;52.548;13.408;2023-04-01T14:20:36;8.83;;;7.10;;
2105;SDS011;1059;52.548;13.408;2023-04-01T14:23:16;8.27;;;7.20;;
2105;SDS011;1059;52.548;13.408;2023-04-01T14:26:01;7.90;;;7.10;;
2105;SDS011;1059;52.548;13.408;2023-04-01T14:28:35;9.20;;;6.97;;
2105;SDS011;1059;52.548;13.408;2023-04-01T14:34:04;8.70;;;7.30;;
2105;SDS011;1059;52.548;13.408;2023-04-01T14:36:42;8.87;;;6.70;;
2105;SDS011;1059;52.548;13.408;2023-04-01T14:42:55;8.43;;;6.70;;
2105;SDS011;1059;52.548;13.408;2023-04-01T14:48:49;9.97;;;7.60;;
2105;SDS011;1059;52.548;13.408;2023-04-01T14:51:20;10.60;;;8.20;;
2105;SDS011;1059;52.548;13.408;2023-04-01T14:53:57;8.80;;;7.63;;
2105;SDS011;1059;52.548;13.408;2023-04-01T14:56:36;13.27;;;9.00;;
2105;SDS011;1059;52.548;13.408;2023-04-01T14:59:07;9.50;;;7.33;;
2105;SDS011;1059;52.548;13.408;2023-04-01T15:01:37;8.37;;;7.07;;
2105;SDS011;1059;52.548;13.408;2023-04-01T15:04:19;8.60;;;6.50;;
2105;SDS011;1059;52.548;13.408;2023-04-01T15:07:07;6.10;;;5.43;;
2105;SDS011;1059;52.548;13.408;2023-04-01T15:09:48;5.93;;;5.33;;
2105;SDS011;1059;52.548;13.408;2023-04-01T15:12:26;7.57;;;6.60;;
2105;SDS011;1059;52.548;13.408;2023-04-01T15:15:02;11.67;;;8.03;;
2105;SDS011;1059;52.548;13.408;2023-04-01T15:17:48;7.60;;;6.80;;
2105;SDS011;1059;52.548;13.408;2023-04-01T15:20:33;7.97;;;7.17;;
2105;SDS011;1059;52.548;13.408;2023-04-01T15:23:15;11.37;;;8.10;;
2105;SDS011;1059;52.548;13.408;2023-04-01T15:25:51;10.90;;;7.83;;
2105;SDS011;1059;52.548;13.408;2023-04-01T15:28:34;8.67;;;7.67;;
2105;SDS011;1059;52.548;13.408;2023-04-01T15:31:11;10.17;;;9.07;;
2105;SDS011;1059;52.548;13.408;2023-04-01T15:33:45;9.90;;;8.13;;
2105;SDS011;1059;52.548;13.408;2023-04-01T15:36:35;8.37;;;7.30;;
2105;SDS011;1059;52.548;13.408;2023-04-01T15:39:11;14.10;;;9.20;;
2105;SDS011;1059;52.548;13.408;2023-04-01T15:41:43;10.70;;;8.70;;
2105;SDS011;1059;52.548;13.408;2023-04-01T15:44:37;9.33;;;8.33;;
2105;SDS011;1059;52.548;13.408;2023-04-01T15:47:28;9.33;;;8.37;;
2105;SDS011;1059;52.548;13.408;2023-04-01T15:50:03;11.03;;;8.90;;
2105;SDS011;1059;52.548;13.408;2023-04-01T15:52:57;9.73;;;8.77;;
2105;SDS011;1059;52.548;13.408;2023-04-01T15:55:34;16.33;;;9.93;;
2105;SDS011;1059;52.548;13.408;2023-04-01T15:58:18;10.37;;;8.20;;
2105;SDS011;1059;52.548;13.408;2023-04-01T16:01:07;13.03;;;9.30;;
2105;SDS011;1059;52.548;13.408;2023-04-01T16:03:43;9.30;;;7.43;;
2105;SDS011;1059;52.548;13.408;2023-04-01T16:09:25;9.63;;;7.20;;
2105;SDS011;1059;52.548;13.408;2023-04-01T16:12:07;9.00;;;7.77;;
2105;SDS011;1059;52.548;13.408;2023-04-01T16:14:44;10.80;;;8.87;;
2105;SDS011;1059;52.548;13.408;2023-04-01T16:17:31;8.60;;;7.17;;
2105;SDS011;1059;52.548;13.408;2023-04-01T16:20:14;13.57;;;10.77;;
2105;SDS011;1059;52.548;13.408;2023-04-01T16:22:49;9.10;;;8.17;;
2105;SDS011;1059;52.548;13.408;2023-04-01T16:25:25;7.73;;;6.93;;
2105;SDS011;1059;52.548;13.408;2023-04-01T16:27:59;7.93;;;6.70;;
2105;SDS011;1059;52.548;13.408;2023-04-01T16:30:40;6.77;;;6.07;;
2105;SDS011;1059;52.548;13.408;2023-04-01T16:33:14;8.03;;;6.50;;
2105;SDS011;1059;52.548;13.408;2023-04-01T16:35:50;7.07;;;6.37;;
2105;SDS011;1059;52.548;13.408;2023-04-01T16:38:22;8.13;;;6.17;;
2105;SDS011;1059;52.548;13.408;2023-04-01T16:40:58;9.30;;;7.00;;
2105;SDS011;1059;52.548;13.408;2023-04-01T16:43:38;8.17;;;6.27;;
2105;SDS011;1059;52.548;13.408;2023-04-01T16:46:21;8.63;;;5.97;;
2105;SDS011;1059;52.548;13.408;2023-04-01T16:48:59;10.90;;;5.77;;
2105;SDS011;1059;52.548;13.408;2023-04-01T16:51:32;7.83;;;5.77;;
2105;SDS011;1059;52.548;13.408;2023-04-01T16:54:10;6.03;;;5.50;;
2105;SDS011;1059;52.548;13.408;2023-04-01T16:56:43;6.03;;;5.43;;